KBLH/BLH METAR and TAF weather

Enter ICAO airport designator
Station Type Date Time Source
KBLH METAR 2018/12/11 23:15 UTC NOAA

KBLH 112315Z 33006KT 10SM CLR 19/04 A3000 RMK AWOS


Station Type Date Time Source
KBLH Decoded METAR 2018/12/11 23:15 UTC NOAA

BLYTHE AIRPORT, CA, United States (KBLH) 33-37N 114-43W 119M
Dec 11, 2018 - 06:15 PM EST / 2018.12.11 2315 UTC
Wind: from the NNW (330 degrees) at 7 MPH (6 KT):0
Visibility: 10 mile(s):0
Sky conditions: clear
Temperature: 66 F (19 C)
Dew Point: 39 F (4 C)
Relative Humidity: 37%
Pressure (altimeter): 30 in. Hg (1015 hPa)
ob: KBLH 112315Z 33006KT 10SM CLR 19/04 A3000 RMK AWOS
cycle: 23

Station Type Date Time Source
KBLH TAF 2018/12/12 12:22 UTC NOAA

TAF KBLH 121120Z 1212/1312 VRB05KT P6SM FEW150
FM130300 34007KT P6SM FEW250


Example: see airport list